createdAt,value
2023-05-21T00:00:30.458Z,47.78
2023-05-21T00:02:59.098Z,47.77
2023-05-21T00:05:25.815Z,47.95
2023-05-21T00:07:54.750Z,47.69
2023-05-21T00:10:21.223Z,47.94
2023-05-21T00:12:47.609Z,47.78
2023-05-21T00:15:14.158Z,47.73
2023-05-21T00:17:40.601Z,47.77
2023-05-21T00:20:09.931Z,47.81
2023-05-21T00:22:36.370Z,47.86
2023-05-21T00:25:03.035Z,47.92
2023-05-21T00:27:29.421Z,47.80
2023-05-21T00:29:55.853Z,48.03
2023-05-21T00:32:22.278Z,47.96
2023-05-21T00:34:48.677Z,47.94
2023-05-21T00:37:15.307Z,47.76
2023-05-21T00:39:41.701Z,47.82
2023-05-21T00:42:08.076Z,47.79
2023-05-21T00:44:35.318Z,48.04
2023-05-21T00:47:04.023Z,47.99
2023-05-21T00:49:30.561Z,47.98
2023-05-21T00:51:56.967Z,48.01
2023-05-21T00:54:23.610Z,47.96
2023-05-21T00:56:50.071Z,48.09
2023-05-21T00:59:16.496Z,47.82
2023-05-21T01:01:45.988Z,47.90
2023-05-21T01:04:12.486Z,47.96
2023-05-21T01:06:38.877Z,48.01
2023-05-21T01:09:06.828Z,47.66
2023-05-21T01:11:36.170Z,48.04
2023-05-21T01:14:02.564Z,47.85
2023-05-21T01:16:28.956Z,47.80
2023-05-21T01:18:55.639Z,48.03
2023-05-21T01:21:22.174Z,47.83
2023-05-21T01:23:49.183Z,47.91
2023-05-21T01:26:15.895Z,47.99
2023-05-21T01:28:42.915Z,48.26
2023-05-21T01:31:16.621Z,48.18
2023-05-21T01:33:45.463Z,48.33
2023-05-21T01:36:15.822Z,48.34
2023-05-21T01:39:00.664Z,48.23
2023-05-21T01:41:27.092Z,48.46
2023-05-21T01:43:53.490Z,48.51
2023-05-21T01:46:20.490Z,48.54
2023-05-21T01:48:46.880Z,48.61
2023-05-21T01:51:13.249Z,48.38
2023-05-21T01:57:32.841Z,48.72
2023-05-21T01:59:59.281Z,48.41
2023-05-21T02:02:25.733Z,48.29
2023-05-21T02:04:52.196Z,48.40
2023-05-21T02:07:18.726Z,48.35
2023-05-21T02:09:45.114Z,48.52
2023-05-21T02:12:11.543Z,48.48
2023-05-21T02:14:38.452Z,48.47
2023-05-21T02:17:04.987Z,48.46
2023-05-21T02:19:31.440Z,48.58
2023-05-21T02:21:57.860Z,48.32
2023-05-21T02:24:24.471Z,48.46
2023-05-21T02:26:51.317Z,48.42
2023-05-21T02:29:18.129Z,48.34
2023-05-21T02:31:44.531Z,48.32
2023-05-21T02:34:10.991Z,48.20
2023-05-21T02:36:37.443Z,48.24
2023-05-21T02:39:04.322Z,48.46
2023-05-21T02:41:30.795Z,48.32
2023-05-21T02:43:57.227Z,48.47
2023-05-21T02:46:23.786Z,48.55
2023-05-21T02:48:51.608Z,48.38
2023-05-21T02:51:18.034Z,48.33
2023-05-21T02:53:44.474Z,48.32
2023-05-21T02:56:12.453Z,48.45
2023-05-21T02:58:38.853Z,48.35
2023-05-21T03:01:05.388Z,48.34
2023-05-21T03:03:32.414Z,48.43
2023-05-21T03:05:58.963Z,48.42
2023-05-21T03:08:26.420Z,48.31
2023-05-21T03:10:52.806Z,48.42
2023-05-21T03:13:19.272Z,48.40
2023-05-21T03:15:46.547Z,48.39
2023-05-21T03:18:13.200Z,48.38
2023-05-21T03:20:44.457Z,48.33
2023-05-21T03:23:14.244Z,48.35
2023-05-21T03:25:42.736Z,48.41
2023-05-21T03:28:12.119Z,48.33
2023-05-21T03:30:47.052Z,48.42
2023-05-21T03:33:39.288Z,48.48
2023-05-21T03:36:17.782Z,48.68
2023-05-21T03:38:44.180Z,48.51
2023-05-21T03:41:10.701Z,48.68
2023-05-21T03:43:37.694Z,48.58
2023-05-21T03:46:04.148Z,48.36
2023-05-21T03:48:58.858Z,48.41
2023-05-21T03:51:27.568Z,48.45
2023-05-21T03:53:54.215Z,48.64
2023-05-21T03:56:21.614Z,48.54
2023-05-21T03:58:48.163Z,48.46
2023-05-21T04:01:14.595Z,48.48
2023-05-21T04:03:41.312Z,48.58
2023-05-21T04:06:10.185Z,48.62
2023-05-21T04:08:38.129Z,48.40
2023-05-21T04:11:04.519Z,48.41
2023-05-21T04:13:30.927Z,48.42
2023-05-21T04:15:57.338Z,48.62
2023-05-21T04:18:26.005Z,48.53
2023-05-21T04:20:52.595Z,48.58
2023-05-21T04:23:19.064Z,48.64
2023-05-21T04:25:50.812Z,48.62
2023-05-21T04:28:21.047Z,48.48
2023-05-21T04:30:48.004Z,48.59
2023-05-21T04:33:17.948Z,48.65
2023-05-21T04:35:46.279Z,48.37
2023-05-21T04:38:12.749Z,48.55
2023-05-21T04:40:39.186Z,48.47
2023-05-21T04:43:05.620Z,48.22
2023-05-21T04:45:32.876Z,48.44
2023-05-21T04:48:00.431Z,48.43
2023-05-21T04:50:30.633Z,48.28
2023-05-21T04:52:58.710Z,48.58
2023-05-21T04:55:26.012Z,48.46
2023-05-21T04:57:52.812Z,48.47
2023-05-21T05:00:19.393Z,48.55
2023-05-21T05:02:46.344Z,48.50
2023-05-21T05:05:12.863Z,48.42
2023-05-21T05:07:39.249Z,48.67
2023-05-21T05:10:05.930Z,48.51
2023-05-21T05:12:33.095Z,48.49
2023-05-21T05:14:59.540Z,48.56
2023-05-21T05:17:27.410Z,48.49
2023-05-21T05:19:53.855Z,48.27
2023-05-21T05:22:20.250Z,48.53
2023-05-21T05:24:46.729Z,48.45
2023-05-21T05:27:13.715Z,48.27
2023-05-21T05:29:40.126Z,48.53
2023-05-21T05:32:06.744Z,48.29
2023-05-21T05:34:33.145Z,48.39
2023-05-21T05:36:59.624Z,48.40
2023-05-21T05:39:26.069Z,48.29
2023-05-21T05:41:52.573Z,48.41
2023-05-21T05:44:19.085Z,48.38
2023-05-21T05:46:45.554Z,48.31
2023-05-21T05:49:11.997Z,48.29
2023-05-21T05:51:39.442Z,48.41
2023-05-21T05:54:06.058Z,48.33
2023-05-21T05:56:33.269Z,48.42
2023-05-21T05:58:59.763Z,48.24
2023-05-21T06:01:26.465Z,48.45
2023-05-21T06:03:52.997Z,48.25
2023-05-21T06:06:19.520Z,48.25
2023-05-21T06:08:46.864Z,48.49
2023-05-21T06:11:16.975Z,48.43
2023-05-21T06:13:43.437Z,48.41
2023-05-21T06:16:10.190Z,48.29
2023-05-21T06:18:37.575Z,48.23
2023-05-21T06:21:04.165Z,48.27
2023-05-21T06:23:32.553Z,48.46
2023-05-21T06:25:59.245Z,48.26
2023-05-21T06:28:26.400Z,48.33
2023-05-21T06:30:53.856Z,48.51
2023-05-21T06:33:20.375Z,48.43
2023-05-21T06:35:46.913Z,48.31
2023-05-21T06:38:13.819Z,48.38
2023-05-21T06:40:40.401Z,48.46
2023-05-21T06:43:11.572Z,48.42
2023-05-21T06:46:13.155Z,48.70
2023-05-21T06:48:40.378Z,48.90
2023-05-21T06:51:06.808Z,48.82
2023-05-21T06:53:33.273Z,48.87
2023-05-21T06:56:00.383Z,49.21
2023-05-21T06:58:34.993Z,48.78
2023-05-21T07:01:01.743Z,49.55
2023-05-21T07:03:29.226Z,49.65
2023-05-21T07:05:55.855Z,49.48
2023-05-21T07:08:22.285Z,49.04
2023-05-21T07:10:49.024Z,49.63
2023-05-21T07:13:17.258Z,50.81
2023-05-21T07:15:44.258Z,51.02
2023-05-21T07:18:11.731Z,50.85
2023-05-21T07:20:38.508Z,50.84
2023-05-21T07:23:06.448Z,50.96
2023-05-21T07:25:33.358Z,50.58
2023-05-21T07:28:00.162Z,50.40
2023-05-21T07:30:26.941Z,50.30
2023-05-21T07:32:53.577Z,50.36
2023-05-21T07:35:20.135Z,50.21
2023-05-21T07:37:47.771Z,50.13
2023-05-21T07:40:14.296Z,49.72
2023-05-21T07:42:42.156Z,49.74
2023-05-21T07:45:08.734Z,49.85
2023-05-21T07:47:40.210Z,49.85
2023-05-21T07:50:06.792Z,49.81
2023-05-21T07:52:33.251Z,50.25
2023-05-21T07:55:01.222Z,50.40
2023-05-21T07:57:30.337Z,51.57
2023-05-21T08:00:00.249Z,52.74
2023-05-21T08:02:28.594Z,53.42
2023-05-21T08:04:55.198Z,54.00
2023-05-21T08:07:21.940Z,56.05
2023-05-21T08:09:48.391Z,55.66
2023-05-21T08:12:15.924Z,56.09
2023-05-21T08:14:43.389Z,56.09
2023-05-21T08:17:11.507Z,56.86
2023-05-21T08:19:38.202Z,56.27
2023-05-21T08:22:06.471Z,56.77
2023-05-21T08:24:34.109Z,56.16
2023-05-21T08:27:01.399Z,56.54
2023-05-21T08:29:29.949Z,56.79
2023-05-21T08:31:56.432Z,56.27
2023-05-21T08:34:23.178Z,56.90
2023-05-21T08:37:00.696Z,56.74
2023-05-21T08:40:06.308Z,56.67
2023-05-21T08:42:42.465Z,56.67
2023-05-21T08:45:14.610Z,56.61
2023-05-21T08:47:42.049Z,56.47
2023-05-21T08:50:13.207Z,56.30
2023-05-21T08:52:39.843Z,56.09
2023-05-21T08:55:06.845Z,55.84
2023-05-21T08:57:33.733Z,55.83
2023-05-21T09:00:01.800Z,55.53
2023-05-21T09:02:30.224Z,55.28
2023-05-21T09:04:57.332Z,55.38
2023-05-21T09:07:24.651Z,55.05
2023-05-21T09:10:19.202Z,55.05
2023-05-21T09:12:45.737Z,55.11
2023-05-21T09:15:12.204Z,55.06
2023-05-21T09:17:38.927Z,55.00
2023-05-21T09:20:24.352Z,54.99
2023-05-21T09:22:55.643Z,54.88
2023-05-21T09:25:23.303Z,54.70
2023-05-21T09:27:49.963Z,54.69
2023-05-21T09:30:18.110Z,54.66
2023-05-21T09:32:44.842Z,54.70
2023-05-21T09:35:12.495Z,54.57
2023-05-21T09:37:39.449Z,54.54
2023-05-21T09:40:12.226Z,54.37
2023-05-21T09:42:48.346Z,54.37
2023-05-21T09:45:18.378Z,54.38
2023-05-21T09:47:44.855Z,54.18
2023-05-21T09:50:11.784Z,54.25
2023-05-21T09:52:40.727Z,54.03
2023-05-21T09:55:14.251Z,54.05
2023-05-21T09:57:43.879Z,54.23
2023-05-21T10:00:17.809Z,54.17
2023-05-21T10:02:47.849Z,54.04
2023-05-21T10:05:14.877Z,53.80
2023-05-21T10:07:41.973Z,54.11
2023-05-21T10:10:08.664Z,53.97
2023-05-21T10:12:35.051Z,53.77
2023-05-21T10:15:03.483Z,53.89
2023-05-21T10:17:29.994Z,53.97
2023-05-21T10:19:56.539Z,53.65
2023-05-21T10:22:24.200Z,53.79
2023-05-21T10:24:50.642Z,53.46
2023-05-21T10:27:17.028Z,53.65
2023-05-21T10:29:43.689Z,53.60
2023-05-21T10:32:10.899Z,53.68
2023-05-21T10:34:37.390Z,53.61
2023-05-21T10:37:03.790Z,53.46
2023-05-21T10:39:30.271Z,53.29
2023-05-21T10:42:03.658Z,53.46
2023-05-21T10:44:33.940Z,53.28
2023-05-21T10:47:04.299Z,53.23
2023-05-21T10:49:30.631Z,53.17
2023-05-21T10:52:01.263Z,53.24
2023-05-21T10:54:33.345Z,52.95
2023-05-21T10:56:59.668Z,52.99
2023-05-21T10:59:36.538Z,53.30
2023-05-21T11:02:02.992Z,53.63
2023-05-21T11:04:29.437Z,53.81
2023-05-21T11:06:56.475Z,53.59
2023-05-21T11:09:22.857Z,53.68
2023-05-21T11:11:52.596Z,53.95
2023-05-21T11:14:28.484Z,53.60
2023-05-21T11:16:55.012Z,53.55
2023-05-21T11:19:21.529Z,53.71
2023-05-21T11:21:51.350Z,53.59
2023-05-21T11:24:20.914Z,53.51
2023-05-21T11:26:55.173Z,53.62
2023-05-21T11:29:21.562Z,53.70
2023-05-21T11:31:48.464Z,53.19
2023-05-21T11:34:14.988Z,52.70
2023-05-21T11:36:42.250Z,52.76
2023-05-21T11:39:12.170Z,52.47
2023-05-21T11:41:54.039Z,51.88
2023-05-21T11:44:39.949Z,51.61
2023-05-21T11:47:06.692Z,49.21
2023-05-21T11:49:33.217Z,50.35
2023-05-21T11:51:59.850Z,49.78
2023-05-21T11:54:26.722Z,50.10
2023-05-21T11:56:53.695Z,51.34
2023-05-21T11:59:20.126Z,51.78
2023-05-21T12:01:46.553Z,52.25
2023-05-21T12:04:13.428Z,52.54
2023-05-21T12:06:42.647Z,52.53
2023-05-21T12:09:12.077Z,52.73
2023-05-21T12:11:39.900Z,52.90
2023-05-21T12:14:12.502Z,52.60
2023-05-21T12:16:39.108Z,52.41
2023-05-21T12:19:05.943Z,52.42
2023-05-21T12:21:32.578Z,52.55
2023-05-21T12:23:58.986Z,52.33
2023-05-21T12:26:25.577Z,52.14
2023-05-21T12:28:55.013Z,52.55
2023-05-21T12:31:24.732Z,52.25
2023-05-21T12:33:51.150Z,52.11
2023-05-21T12:36:26.972Z,52.21
2023-05-21T12:38:53.475Z,52.05
2023-05-21T12:41:19.876Z,52.08
2023-05-21T12:43:46.556Z,52.06
2023-05-21T12:46:14.829Z,52.08
2023-05-21T12:48:42.631Z,52.05
2023-05-21T12:51:09.027Z,52.25
2023-05-21T12:53:38.490Z,52.18
2023-05-21T12:56:09.154Z,52.13
2023-05-21T12:58:35.596Z,52.37
2023-05-21T13:01:03.928Z,52.10
2023-05-21T13:03:32.147Z,52.36
2023-05-21T13:06:01.863Z,52.25
2023-05-21T13:08:28.567Z,52.50
2023-05-21T13:10:55.030Z,52.62
2023-05-21T13:13:21.426Z,52.70
2023-05-21T13:15:47.857Z,52.38
2023-05-21T13:18:15.739Z,52.50
2023-05-21T13:20:42.208Z,52.35
2023-05-21T13:23:11.282Z,52.70
2023-05-21T13:25:38.186Z,52.75
2023-05-21T13:28:05.160Z,52.83
2023-05-21T13:30:33.292Z,52.89
2023-05-21T13:32:59.754Z,52.61
2023-05-21T13:35:26.359Z,52.86
2023-05-21T13:37:52.785Z,52.60
2023-05-21T13:40:19.251Z,52.69
2023-05-21T13:42:46.259Z,52.74
2023-05-21T13:45:13.670Z,56.44
2023-05-21T13:47:40.661Z,54.31
2023-05-21T13:50:07.709Z,53.23
2023-05-21T13:52:34.211Z,52.61
2023-05-21T13:55:00.593Z,52.63
2023-05-21T13:57:27.242Z,52.55
2023-05-21T13:59:53.760Z,52.44
2023-05-21T14:02:20.190Z,51.98
2023-05-21T14:04:46.600Z,50.44
2023-05-21T14:07:13.064Z,50.71
2023-05-21T14:09:39.589Z,50.26
2023-05-21T14:12:06.786Z,50.36
2023-05-21T14:14:33.370Z,50.33
2023-05-21T14:16:59.810Z,50.06
2023-05-21T14:19:26.452Z,49.71
2023-05-21T14:21:52.939Z,49.96
2023-05-21T14:24:19.447Z,50.33
2023-05-21T14:26:45.826Z,50.19
2023-05-21T14:29:12.222Z,50.48
2023-05-21T14:31:38.669Z,50.79
2023-05-21T14:34:06.889Z,50.74
2023-05-21T14:36:33.305Z,50.59
2023-05-21T14:38:59.734Z,50.73
2023-05-21T14:41:29.109Z,50.83
2023-05-21T14:43:55.508Z,51.10
2023-05-21T14:46:21.968Z,50.97
2023-05-21T14:48:48.430Z,50.90
2023-05-21T14:51:14.812Z,50.86
2023-05-21T14:53:41.222Z,50.92
2023-05-21T14:56:07.609Z,51.34
2023-05-21T14:58:34.055Z,51.47
2023-05-21T15:01:00.673Z,51.85
2023-05-21T15:03:27.370Z,51.47
2023-05-21T15:05:54.142Z,51.17
2023-05-21T15:08:20.651Z,50.71
2023-05-21T15:10:47.034Z,49.70
2023-05-21T15:13:13.442Z,49.33
2023-05-21T15:15:40.215Z,49.12
2023-05-21T15:18:06.872Z,48.93
2023-05-21T15:20:33.417Z,48.92
2023-05-21T15:23:15.388Z,48.79
2023-05-21T15:25:43.504Z,49.05
2023-05-21T15:28:10.039Z,48.85
2023-05-21T15:30:36.431Z,49.15
2023-05-21T15:33:03.069Z,49.27
2023-05-21T15:35:29.775Z,49.52
2023-05-21T15:37:56.283Z,49.89
2023-05-21T15:40:24.372Z,50.15
2023-05-21T15:42:51.912Z,50.39
2023-05-21T15:45:18.315Z,50.46
2023-05-21T15:47:44.757Z,50.11
2023-05-21T15:50:12.071Z,50.52
2023-05-21T15:52:38.477Z,50.44
2023-05-21T15:55:04.967Z,50.82
2023-05-21T15:57:31.456Z,50.51
2023-05-21T15:59:57.925Z,50.76
2023-05-21T16:02:24.475Z,50.66
2023-05-21T16:04:51.985Z,50.62
2023-05-21T16:07:18.744Z,50.72
2023-05-21T16:09:45.182Z,50.44
2023-05-21T16:12:11.582Z,50.48
2023-05-21T16:14:37.974Z,50.54
2023-05-21T16:17:04.441Z,50.72
2023-05-21T16:19:31.114Z,50.79
2023-05-21T16:21:57.599Z,50.61
2023-05-21T16:24:23.990Z,50.52
2023-05-21T16:26:50.451Z,50.65
2023-05-21T16:29:16.857Z,50.61
2023-05-21T16:31:43.311Z,50.89
2023-05-21T16:34:09.732Z,50.55
2023-05-21T16:36:38.225Z,50.48
2023-05-21T16:39:04.633Z,50.40
2023-05-21T16:41:31.134Z,50.34
2023-05-21T16:43:57.525Z,50.42
2023-05-21T16:46:24.000Z,50.78
2023-05-21T16:48:50.629Z,50.97
2023-05-21T16:51:16.997Z,50.77
2023-05-21T16:53:43.406Z,51.01
2023-05-21T16:56:09.782Z,50.89
2023-05-21T16:58:36.162Z,51.01
2023-05-21T17:01:02.570Z,50.58
2023-05-21T17:03:29.661Z,50.85
2023-05-21T17:05:56.102Z,50.75
2023-05-21T17:08:22.487Z,50.75
2023-05-21T17:10:48.878Z,50.73
2023-05-21T17:13:22.127Z,50.84
2023-05-21T17:15:50.574Z,50.59
2023-05-21T17:18:17.084Z,50.63
2023-05-21T17:20:43.749Z,50.87
2023-05-21T17:23:10.862Z,50.73
2023-05-21T17:25:37.473Z,50.50
2023-05-21T17:28:03.955Z,50.66
2023-05-21T17:30:30.395Z,50.55
2023-05-21T17:32:58.181Z,50.47
2023-05-21T17:35:24.672Z,50.56
2023-05-21T17:37:53.204Z,50.56
2023-05-21T17:40:21.308Z,50.53
2023-05-21T17:42:47.782Z,50.25
2023-05-21T17:45:14.223Z,50.15
2023-05-21T17:47:40.655Z,50.38
2023-05-21T17:50:07.424Z,50.12
2023-05-21T17:52:33.805Z,50.36
2023-05-21T17:55:00.949Z,50.63
2023-05-21T17:57:27.320Z,50.32
2023-05-21T17:59:55.100Z,50.20
2023-05-21T18:02:23.382Z,50.25
2023-05-21T18:04:49.815Z,50.68
2023-05-21T18:07:16.220Z,50.57
2023-05-21T18:09:42.845Z,50.53
2023-05-21T18:12:09.223Z,50.67
2023-05-21T18:14:35.601Z,50.68
2023-05-21T18:17:02.153Z,50.76
2023-05-21T18:19:28.742Z,50.56
2023-05-21T18:21:55.297Z,50.60
2023-05-21T18:24:21.682Z,50.79
2023-05-21T18:26:48.541Z,51.11
2023-05-21T18:29:15.050Z,50.86
2023-05-21T18:31:42.926Z,51.22
2023-05-21T18:34:09.495Z,51.40
2023-05-21T18:36:38.692Z,51.99
2023-05-21T18:39:08.674Z,51.58
2023-05-21T18:41:35.086Z,51.84
2023-05-21T18:44:01.849Z,52.60
2023-05-21T18:46:28.674Z,51.96
2023-05-21T18:48:55.946Z,51.68
2023-05-21T18:51:22.363Z,51.62
2023-05-21T18:53:48.772Z,51.82
2023-05-21T18:56:15.226Z,51.75
2023-05-21T18:58:41.661Z,51.86
2023-05-21T19:01:08.117Z,51.94
2023-05-21T19:03:34.498Z,51.73
2023-05-21T19:06:00.901Z,51.96
2023-05-21T19:08:27.289Z,51.93
2023-05-21T19:10:53.687Z,51.67
2023-05-21T19:13:20.070Z,51.93
2023-05-21T19:15:48.368Z,51.77
2023-05-21T19:18:14.797Z,51.69
2023-05-21T19:20:41.181Z,52.03
2023-05-21T19:23:07.617Z,51.73
2023-05-21T19:25:34.029Z,51.75
2023-05-21T19:28:00.851Z,51.85
2023-05-21T19:30:27.532Z,52.03
2023-05-21T19:32:53.956Z,51.71
2023-05-21T19:35:20.503Z,52.03
2023-05-21T19:37:46.917Z,51.73
2023-05-21T19:40:13.336Z,51.93
2023-05-21T19:42:39.725Z,51.83
2023-05-21T19:45:09.393Z,51.99
2023-05-21T19:47:36.251Z,51.73
2023-05-21T19:50:03.153Z,51.64
2023-05-21T19:52:29.601Z,51.90
2023-05-21T19:55:04.293Z,51.69
2023-05-21T19:57:31.490Z,51.76
2023-05-21T19:59:58.481Z,51.62
2023-05-21T20:02:25.110Z,51.66
2023-05-21T20:04:51.651Z,51.53
2023-05-21T20:07:18.042Z,51.75
2023-05-21T20:09:44.434Z,51.83
2023-05-21T20:12:10.991Z,51.80
2023-05-21T20:14:37.375Z,51.66
2023-05-21T20:17:05.715Z,51.84
2023-05-21T20:19:32.610Z,51.74
2023-05-21T20:21:59.226Z,51.75
2023-05-21T20:24:25.608Z,51.73
2023-05-21T20:26:52.102Z,51.77
2023-05-21T20:29:18.489Z,51.60
2023-05-21T20:31:44.933Z,51.76
2023-05-21T20:34:12.178Z,51.54
2023-05-21T20:36:40.331Z,51.73
2023-05-21T20:39:07.453Z,51.85
2023-05-21T20:41:37.528Z,51.59
2023-05-21T20:44:07.120Z,51.92
2023-05-21T20:46:34.214Z,51.76
2023-05-21T20:49:00.723Z,51.57
2023-05-21T20:51:27.280Z,51.84
2023-05-21T20:53:53.658Z,51.68
2023-05-21T20:56:29.846Z,51.76
2023-05-21T20:59:07.998Z,51.92
2023-05-21T21:01:37.791Z,51.78
2023-05-21T21:04:04.872Z,51.39
2023-05-21T21:06:31.710Z,51.66
2023-05-21T21:08:58.278Z,51.75
2023-05-21T21:11:24.710Z,51.65
2023-05-21T21:13:51.842Z,51.51
2023-05-21T21:16:18.383Z,51.66
2023-05-21T21:18:46.385Z,51.83
2023-05-21T21:21:12.826Z,51.84
2023-05-21T21:23:39.237Z,51.73
2023-05-21T21:26:05.615Z,51.77
2023-05-21T21:28:32.003Z,51.93
2023-05-21T21:30:58.380Z,51.67
2023-05-21T21:33:26.528Z,51.71
2023-05-21T21:35:53.094Z,51.87
2023-05-21T21:38:19.500Z,51.79
2023-05-21T21:40:45.897Z,51.46
2023-05-21T21:43:12.294Z,51.63
2023-05-21T21:45:38.743Z,51.71
2023-05-21T21:48:05.248Z,51.85
2023-05-21T21:50:31.717Z,51.88
2023-05-21T21:52:58.111Z,51.87
2023-05-21T21:55:24.544Z,51.68
2023-05-21T21:57:51.224Z,51.92
2023-05-21T22:00:17.679Z,51.75
2023-05-21T22:02:44.139Z,51.54
2023-05-21T22:05:10.615Z,51.80
2023-05-21T22:07:38.624Z,51.81
2023-05-21T22:10:05.641Z,51.80
2023-05-21T22:12:33.666Z,51.73
2023-05-21T22:15:04.969Z,51.57
2023-05-21T22:17:32.786Z,51.69
2023-05-21T22:19:59.513Z,51.70
2023-05-21T22:22:26.022Z,51.75
2023-05-21T22:24:52.717Z,51.80
2023-05-21T22:27:19.120Z,51.72
2023-05-21T22:29:45.646Z,51.71
2023-05-21T22:32:12.232Z,51.54
2023-05-21T22:34:38.621Z,51.77
2023-05-21T22:37:05.029Z,51.76
2023-05-21T22:39:31.405Z,51.50
2023-05-21T22:41:57.799Z,51.74
2023-05-21T22:44:24.184Z,51.89
2023-05-21T22:46:51.905Z,51.81
2023-05-21T22:49:19.761Z,51.81
2023-05-21T22:51:46.380Z,51.78
2023-05-21T22:54:12.782Z,51.61
2023-05-21T22:56:39.177Z,51.78
2023-05-21T22:59:05.595Z,51.73
2023-05-21T23:01:32.081Z,51.79
2023-05-21T23:03:58.531Z,51.75
2023-05-21T23:06:24.914Z,51.65
2023-05-21T23:08:51.302Z,51.63
2023-05-21T23:11:17.713Z,51.58
2023-05-21T23:13:44.116Z,51.34
2023-05-21T23:16:10.572Z,51.63
2023-05-21T23:18:37.002Z,51.85
2023-05-21T23:21:03.437Z,51.32
2023-05-21T23:23:30.439Z,51.46
2023-05-21T23:25:58.797Z,51.69
2023-05-21T23:28:25.406Z,51.47
2023-05-21T23:30:51.837Z,51.73
2023-05-21T23:33:18.239Z,51.66
2023-05-21T23:35:44.664Z,51.40
2023-05-21T23:38:11.050Z,51.41
2023-05-21T23:40:37.638Z,51.35
2023-05-21T23:43:04.660Z,51.40
2023-05-21T23:45:31.194Z,51.64
2023-05-21T23:47:57.664Z,51.33
2023-05-21T23:50:24.102Z,51.33
2023-05-21T23:52:50.573Z,51.65
2023-05-21T23:55:16.967Z,51.61
2023-05-21T23:57:43.536Z,51.66
